Time;durP1;ratioP1;P1;durP2;ratioP2;P2;SDS_P1;SDS_P2;PMS_P1;PMS_P2;Temp;Humidity;BMP_temperature;BMP_pressure;BME280_temperature;BME280_humidity;BME280_pressure;Samples;Min_cycle;Max_cycle;Signal;HPM_P1;HPM_P2
2021/05/05 00:02:20;;;;;;;3.00;1.10;;;;;;;7.72;100.00;98835.81;4991867;28;20233;-76
2021/05/05 00:04:48;;;;;;;1.17;0.80;;;;;;;7.72;100.00;98846.63;5009191;28;20204;-77
2021/05/05 00:07:18;;;;;;;2.13;1.00;;;;;;;7.67;100.00;98838.59;4976494;28;20261;-77
2021/05/05 00:09:48;;;;;;;3.37;1.20;;;;;;;7.75;100.00;98846.03;4992726;28;20283;-76
2021/05/05 00:12:15;;;;;;;1.40;1.00;;;;;;;7.78;100.00;98846.25;5007738;28;20280;-77
2021/05/05 00:14:46;;;;;;;2.40;0.90;;;;;;;7.72;100.00;98830.41;4992796;28;20583;-77
2021/05/05 00:17:16;;;;;;;1.90;1.20;;;;;;;7.81;100.00;98839.44;4992162;28;20731;-77
2021/05/05 00:19:42;;;;;;;2.50;1.27;;;;;;;7.69;100.00;98836.41;4993670;28;20691;-78
2021/05/05 00:22:09;;;;;;;4.50;1.70;;;;;;;7.71;100.00;98831.53;5007786;28;20225;-77
2021/05/05 00:24:35;;;;;;;2.77;1.10;;;;;;;7.64;100.00;98830.28;4976237;28;20244;-77
2021/05/05 00:27:03;;;;;;;4.47;1.17;;;;;;;7.71;100.00;98845.03;4991796;28;20610;-77
2021/05/05 00:29:31;;;;;;;2.93;1.20;;;;;;;7.66;100.00;98836.22;4992423;28;20300;-76
2021/05/05 00:31:57;;;;;;;3.83;1.20;;;;;;;7.75;100.00;98836.03;5007478;28;20229;-77
2021/05/05 00:34:25;;;;;;;3.17;1.27;;;;;;;7.76;100.00;98839.50;4992630;28;20194;-76
2021/05/05 00:36:51;;;;;;;5.13;2.20;;;;;;;7.81;100.00;98834.03;5008020;28;20248;-77
2021/05/05 00:39:19;;;;;;;3.47;1.60;;;;;;;7.72;100.00;98835.81;4976149;28;20186;-76
2021/05/05 00:41:44;;;;;;;3.10;1.70;;;;;;;7.66;100.00;98836.22;5007483;28;20226;-79
2021/05/05 00:44:10;;;;;;;1.83;1.53;;;;;;;7.67;100.00;98833.19;4992228;28;20200;-77
2021/05/05 00:46:40;;;;;;;4.93;1.60;;;;;;;7.63;100.00;98826.78;4992018;28;20275;-77
2021/05/05 00:49:06;;;;;;;2.17;1.60;;;;;;;7.62;100.00;98829.78;4991068;28;20209;-77
2021/05/05 00:51:32;;;;;;;3.33;2.40;;;;;;;7.63;100.00;98832.19;4990925;28;20229;-76
2021/05/05 00:53:57;;;;;;;3.07;1.93;;;;;;;7.69;100.00;98826.41;4990584;28;20181;-76
2021/05/05 00:56:25;;;;;;;1.53;1.40;;;;;;;7.70;100.00;98832.59;5007785;28;20312;-76
2021/05/05 00:58:53;;;;;;;2.67;1.60;;;;;;;7.74;100.00;98829.00;4975587;28;20561;-78
2021/05/05 01:01:23;;;;;;;2.20;1.53;;;;;;;7.71;100.00;98812.63;4991340;28;20615;-77
2021/05/05 01:03:51;;;;;;;3.33;1.63;;;;;;;7.62;100.00;98814.41;4987531;28;20280;-76
2021/05/05 01:06:17;;;;;;;3.40;1.70;;;;;;;7.55;100.00;98800.47;4974674;28;20229;-76
2021/05/05 01:08:44;;;;;;;2.17;1.30;;;;;;;7.57;100.00;98813.69;4975470;28;20185;-77
2021/05/05 01:11:12;;;;;;;2.63;1.60;;;;;;;7.57;100.00;98806.38;4991161;28;20309;-76
2021/05/05 01:13:42;;;;;;;3.17;1.60;;;;;;;7.58;100.00;98824.19;4991772;28;20320;-76
2021/05/05 01:16:14;;;;;;;3.23;1.90;;;;;;;7.51;100.00;98828.34;5007201;28;20741;-76
2021/05/05 01:18:43;;;;;;;3.40;1.70;;;;;;;7.60;100.00;98827.41;4991700;28;20254;-76
2021/05/05 01:21:13;;;;;;;1.67;1.30;;;;;;;7.73;100.00;98826.63;5007202;28;20248;-76
2021/05/05 01:23:42;;;;;;;3.60;1.50;;;;;;;7.78;100.00;98819.22;4991009;28;20194;-78
2021/05/05 01:26:09;;;;;;;2.87;1.30;;;;;;;7.77;100.00;98816.81;4958580;28;20221;-77
2021/05/05 01:28:39;;;;;;;2.47;1.57;;;;;;;7.78;100.00;98816.53;4975032;28;20177;-75
2021/05/05 01:31:06;;;;;;;3.03;1.50;;;;;;;7.84;100.00;98822.63;4990472;28;20306;-77
2021/05/05 01:33:34;;;;;;;5.40;1.73;;;;;;;7.80;100.00;98816.19;4990330;28;20285;-76
2021/05/05 01:36:00;;;;;;;4.27;1.67;;;;;;;7.74;100.00;98826.28;4974470;28;20304;-76
2021/05/05 01:38:26;;;;;;;2.67;1.50;;;;;;;7.84;100.00;98811.81;4991136;28;20248;-77
2021/05/05 01:40:57;;;;;;;3.20;1.40;;;;;;;7.80;100.00;98817.03;5006462;28;20218;-76
2021/05/05 01:43:22;;;;;;;2.40;1.20;;;;;;;7.78;100.00;98818.41;4990387;28;20812;-75
2021/05/05 01:45:50;;;;;;;2.23;1.40;;;;;;;7.80;100.00;98805.38;5006490;28;20232;-75
2021/05/05 01:48:16;;;;;;;2.57;1.53;;;;;;;7.83;100.00;98821.00;4990999;28;20189;-75
2021/05/05 01:50:42;;;;;;;2.50;1.20;;;;;;;7.76;100.00;98816.00;4990391;28;20240;-76
2021/05/05 01:53:08;;;;;;;2.73;1.50;;;;;;;7.79;100.00;98814.59;5006534;28;20568;-75
2021/05/05 01:55:38;;;;;;;3.23;1.40;;;;;;;7.79;100.00;98803.81;4990083;28;20292;-77
2021/05/05 01:58:06;;;;;;;3.13;1.50;;;;;;;7.80;100.00;98803.50;5006184;28;20288;-76
2021/05/05 02:00:36;;;;;;;2.40;1.40;;;;;;;7.75;100.00;98809.00;4989815;28;20714;-77
2021/05/05 02:03:08;;;;;;;1.57;1.20;;;;;;;7.77;100.00;98795.19;4974412;28;20205;-76
2021/05/05 02:05:39;;;;;;;2.87;1.30;;;;;;;7.75;100.00;98809.00;4990115;28;20221;-76
2021/05/05 02:08:26;;;;;;;1.80;1.30;;;;;;;7.73;100.00;98805.00;4990708;28;20182;-76
2021/05/05 02:10:52;;;;;;;2.07;1.30;;;;;;;7.69;100.00;98804.78;5006320;28;20237;-76
2021/05/05 02:13:22;;;;;;;3.30;1.20;;;;;;;7.67;100.00;98809.69;4974079;28;20186;-76
2021/05/05 02:15:51;;;;;;;1.83;1.10;;;;;;;7.75;100.00;98819.81;4989898;28;20252;-77
2021/05/05 02:18:18;;;;;;;5.03;1.43;;;;;;;7.54;100.00;98804.25;4990302;28;20176;-76
2021/05/05 02:20:46;;;;;;;2.57;1.33;;;;;;;7.41;100.00;98807.72;4989425;28;20236;-75
2021/05/05 02:23:11;;;;;;;3.07;1.50;;;;;;;7.35;100.00;98814.31;4986008;28;20190;-75
2021/05/05 02:25:38;;;;;;;2.60;1.40;;;;;;;7.26;100.00;98799.09;4973532;28;20231;-76
2021/05/05 02:28:12;;;;;;;2.80;1.43;;;;;;;7.16;100.00;98803.88;4990231;28;20210;-76
2021/05/05 02:30:46;;;;;;;2.57;1.60;;;;;;;7.13;100.00;98799.06;5005788;28;20299;-76
2021/05/05 02:33:16;;;;;;;3.47;1.50;;;;;;;7.15;100.00;98813.06;4989356;28;20678;-77
2021/05/05 02:35:47;;;;;;;4.27;1.50;;;;;;;7.14;100.00;98811.47;4973658;28;20309;-76
2021/05/05 02:38:14;;;;;;;3.70;1.20;;;;;;;7.05;100.00;98799.72;4974315;28;20607;-77
2021/05/05 02:40:39;;;;;;;3.10;1.10;;;;;;;7.10;100.00;98791.56;4973440;28;20245;-75
2021/05/05 02:43:05;;;;;;;3.70;1.40;;;;;;;7.05;100.00;98803.25;4989600;28;20198;-75
2021/05/05 02:45:34;;;;;;;3.13;1.30;;;;;;;7.07;100.00;98794.84;4973454;28;20228;-76
2021/05/05 02:48:02;;;;;;;3.07;1.50;;;;;;;7.14;100.00;98796.09;5006044;28;20619;-76
2021/05/05 02:50:31;;;;;;;3.93;1.30;;;;;;;7.27;100.00;98789.09;4988798;28;20722;-76
2021/05/05 02:52:59;;;;;;;5.40;1.20;;;;;;;7.26;100.00;98785.59;4989227;28;20556;-76
2021/05/05 02:55:25;;;;;;;4.40;1.30;;;;;;;7.27;100.00;98789.09;4986554;28;20648;-77
2021/05/05 02:57:51;;;;;;;2.67;1.07;;;;;;;7.23;100.00;98775.41;4974187;28;20210;-77
2021/05/05 03:00:20;;;;;;;2.77;1.20;;;;;;;7.29;100.00;98783.13;4983572;28;20193;-77
2021/05/05 03:02:46;;;;;;;3.90;1.33;;;;;;;7.33;100.00;98783.34;4983324;28;20185;-77
2021/05/05 03:05:14;;;;;;;2.63;1.00;;;;;;;7.35;100.00;98787.31;4985733;28;20201;-78
2021/05/05 03:07:39;;;;;;;3.73;1.00;;;;;;;7.42;100.00;98787.75;4984633;28;20209;-78
2021/05/05 03:10:06;;;;;;;3.30;1.00;;;;;;;7.47;100.00;98778.75;4979775;28;20217;-76
2021/05/05 03:12:34;;;;;;;4.30;1.17;;;;;;;7.44;100.00;98792.84;4972778;28;20229;-77
2021/05/05 03:15:02;;;;;;;3.73;1.20;;;;;;;7.41;100.00;98790.75;5007283;28;20397;-76
2021/05/05 03:17:27;;;;;;;3.27;1.10;;;;;;;7.42;100.00;98798.56;4974445;28;20569;-75
2021/05/05 03:19:53;;;;;;;1.63;0.80;;;;;;;7.39;100.00;98801.84;4973538;28;20250;-77
2021/05/05 03:22:22;;;;;;;4.60;1.10;;;;;;;7.40;100.00;98798.03;4988377;28;20249;-77
2021/05/05 03:24:48;;;;;;;2.17;0.93;;;;;;;7.43;100.00;98799.34;4986142;28;20549;-78
2021/05/05 03:27:14;;;;;;;4.47;1.00;;;;;;;7.43;100.00;98810.94;4984745;28;20233;-79
2021/05/05 03:29:44;;;;;;;3.00;1.10;;;;;;;7.35;100.00;98800.81;4977457;28;20259;-77
2021/05/05 03:32:13;;;;;;;4.07;1.33;;;;;;;7.32;100.00;98804.09;4989162;28;20225;-76
2021/05/05 03:34:46;;;;;;;3.50;1.00;;;;;;;7.30;100.00;98803.59;5003109;28;20252;-76
2021/05/05 03:37:11;;;;;;;3.23;0.90;;;;;;;7.30;100.00;98800.13;4989309;28;20225;-78
2021/05/05 03:39:37;;;;;;;4.17;1.00;;;;;;;7.33;100.00;98799.53;4989954;28;20181;-75
2021/05/05 03:42:03;;;;;;;1.93;0.90;;;;;;;7.27;100.00;98794.50;5004442;28;20316;-77
2021/05/05 03:44:31;;;;;;;1.47;1.00;;;;;;;7.24;100.00;98795.09;4973631;28;20205;-77
2021/05/05 03:46:59;;;;;;;4.70;1.03;;;;;;;7.24;100.00;98804.00;4973099;28;20707;-76
2021/05/05 03:49:24;;;;;;;2.97;1.10;;;;;;;7.25;100.00;98802.09;4973555;28;20267;-77
2021/05/05 03:51:52;;;;;;;4.70;1.27;;;;;;;7.28;100.00;98801.50;4972068;28;20213;-77
2021/05/05 03:54:18;;;;;;;3.00;1.13;;;;;;;7.38;100.00;98802.94;4990402;28;20254;-78
2021/05/05 03:56:44;;;;;;;3.47;0.90;;;;;;;7.29;100.00;98803.94;4964715;28;20316;-77
2021/05/05 03:59:12;;;;;;;2.63;0.80;;;;;;;7.32;100.00;98801.41;4973167;28;20281;-76
2021/05/05 04:01:40;;;;;;;3.10;1.10;;;;;;;7.39;100.00;98796.44;4988181;28;20320;-78
2021/05/05 04:04:11;;;;;;;4.00;1.23;;;;;;;7.33;100.00;98786.81;4989666;28;20216;-76
2021/05/05 04:06:36;;;;;;;2.57;1.00;;;;;;;7.28;100.00;98797.69;4984266;28;20619;-77
2021/05/05 04:09:05;;;;;;;3.40;1.30;;;;;;;7.21;100.00;98774.09;4990425;28;20205;-77
2021/05/05 04:11:30;;;;;;;1.53;1.00;;;;;;;7.20;100.00;98791.38;4989904;28;20593;-77
2021/05/05 04:13:56;;;;;;;1.97;0.80;;;;;;;7.10;100.00;98791.56;4990168;28;20193;-78
2021/05/05 04:16:23;;;;;;;4.43;1.10;;;;;;;7.16;100.00;98790.38;4989906;28;20226;-77
2021/05/05 04:18:51;;;;;;;4.67;1.20;;;;;;;7.22;100.00;98800.00;4989504;28;20288;-77
2021/05/05 04:21:26;;;;;;;4.30;1.30;;;;;;;7.18;100.00;98790.88;5004969;28;20291;-77
2021/05/05 04:23:52;;;;;;;2.57;0.97;;;;;;;7.22;100.00;98789.22;4988973;28;20200;-78
2021/05/05 04:26:20;;;;;;;2.67;1.20;;;;;;;7.21;100.00;98784.91;4993364;28;20301;-77
2021/05/05 04:28:46;;;;;;;3.93;1.40;;;;;;;7.24;100.00;98800.50;4992990;28;20190;-77
2021/05/05 04:31:12;;;;;;;3.03;1.20;;;;;;;7.28;100.00;98806.91;4994554;28;20256;-78
2021/05/05 04:33:39;;;;;;;3.43;0.97;;;;;;;7.25;100.00;98796.69;4992211;28;20648;-77
2021/05/05 04:36:07;;;;;;;3.90;1.33;;;;;;;7.24;100.00;98805.91;5008702;28;20711;-77
2021/05/05 04:38:33;;;;;;;5.17;0.90;;;;;;;7.27;100.00;98794.50;5008789;28;20197;-79
2021/05/05 04:41:01;;;;;;;3.27;1.20;;;;;;;7.33;100.00;98805.72;4992396;28;20293;-76
2021/05/05 04:43:26;;;;;;;5.43;1.33;;;;;;;7.40;100.00;98806.16;4994099;28;20209;-77
2021/05/05 04:45:54;;;;;;;4.27;1.13;;;;;;;7.47;100.00;98811.16;4977114;28;20233;-75
2021/05/05 04:48:22;;;;;;;6.07;1.30;;;;;;;7.47;100.00;98816.56;5009070;28;20198;-76
2021/05/05 04:50:48;;;;;;;4.10;1.30;;;;;;;7.45;100.00;98814.13;4986771;28;20257;-77
2021/05/05 04:53:14;;;;;;;10.33;5.10;;;;;;;7.53;100.00;98821.56;4993932;28;20189;-77
2021/05/05 04:55:39;;;;;;;4.63;1.90;;;;;;;7.48;100.00;98813.56;4994024;28;20589;-77
2021/05/05 04:58:05;;;;;;;3.93;1.10;;;;;;;7.36;100.00;98815.94;4993583;28;20217;-76
2021/05/05 05:00:36;;;;;;;2.80;1.27;;;;;;;7.33;100.00;98831.94;4987183;28;20245;-77
2021/05/05 05:03:04;;;;;;;5.23;1.33;;;;;;;7.37;100.00;98825.63;4973969;28;20187;-77
2021/05/05 05:05:35;;;;;;;6.00;1.23;;;;;;;7.42;100.00;98830.94;4987194;28;20604;-77
2021/05/05 05:08:06;;;;;;;3.90;1.20;;;;;;;7.39;100.00;98831.53;4992774;28;20205;-76
2021/05/05 05:10:31;;;;;;;4.83;1.20;;;;;;;7.47;100.00;98825.47;4976648;28;20240;-78
2021/05/05 05:13:00;;;;;;;4.37;1.57;;;;;;;7.42;100.00;98830.94;4976667;28;20174;-78
2021/05/05 05:15:29;;;;;;;4.60;1.23;;;;;;;7.54;100.00;98823.16;5009625;28;20648;-77
2021/05/05 05:17:54;;;;;;;3.00;1.10;;;;;;;7.48;100.00;98832.47;5009151;28;20201;-77
2021/05/05 05:20:22;;;;;;;3.80;1.13;;;;;;;7.57;100.00;98838.78;5007793;28;20247;-76
2021/05/05 05:22:49;;;;;;;5.20;1.13;;;;;;;7.38;100.00;98835.34;4992272;28;20244;-76
2021/05/05 05:25:17;;;;;;;7.87;1.27;;;;;;;7.42;100.00;98830.16;4992161;28;20218;-77
2021/05/05 05:27:45;;;;;;;4.13;1.40;;;;;;;7.38;100.00;98846.16;4992412;28;20209;-79
2021/05/05 05:30:14;;;;;;;11.43;5.10;;;;;;;7.43;100.00;98843.34;4960750;28;20276;-77
2021/05/05 05:32:40;;;;;;;4.60;1.70;;;;;;;7.46;100.00;98840.06;5005675;28;20262;-79
2021/05/05 05:35:06;;;;;;;3.47;1.07;;;;;;;7.50;100.00;98849.16;4997719;28;20576;-76
2021/05/05 05:37:37;;;;;;;3.87;0.90;;;;;;;7.48;100.00;98845.97;4968353;28;20213;-76
2021/05/05 05:40:06;;;;;;;3.07;1.10;;;;;;;7.35;99.99;98852.13;4992858;28;20277;-76
2021/05/05 05:42:31;;;;;;;4.23;1.30;;;;;;;7.43;99.56;98856.84;4974398;28;20684;-76
2021/05/05 05:45:00;;;;;;;5.10;1.20;;;;;;;7.49;99.42;98847.59;4992613;28;20193;-78
2021/05/05 05:47:30;;;;;;;3.50;1.33;;;;;;;7.56;98.85;98844.47;4992314;28;20229;-77
2021/05/05 05:49:56;;;;;;;8.37;1.97;;;;;;;7.63;99.66;98851.09;4991891;28;20308;-78
2021/05/05 05:52:24;;;;;;;3.90;1.20;;;;;;;7.79;100.00;98858.63;4975607;28;20217;-77
2021/05/05 05:54:52;;;;;;;3.83;1.27;;;;;;;7.55;100.00;98856.41;5007473;28;20795;-76
2021/05/05 05:57:26;;;;;;;3.50;1.30;;;;;;;7.54;100.00;98843.97;4990469;28;20229;-77
2021/05/05 06:00:01;;;;;;;3.20;1.13;;;;;;;7.47;100.00;98844.38;4987438;28;20182;-76
2021/05/05 06:02:26;;;;;;;3.17;1.20;;;;;;;7.55;100.00;98857.19;4987290;28;20228;-77
2021/05/05 06:04:52;;;;;;;5.67;1.87;;;;;;;7.51;100.00;98850.78;4956518;28;20182;-75
2021/05/05 06:07:20;;;;;;;3.93;1.40;;;;;;;7.52;100.00;98857.78;4987799;28;20230;-78
2021/05/05 06:09:46;;;;;;;6.17;1.63;;;;;;;7.51;100.00;98861.59;4955681;28;20202;-77
2021/05/05 06:12:14;;;;;;;5.43;1.30;;;;;;;7.44;100.00;98855.75;4978690;28;20596;-79
2021/05/05 06:14:42;;;;;;;6.20;1.80;;;;;;;7.54;100.00;98871.78;5004252;28;20201;-78
2021/05/05 06:17:10;;;;;;;3.17;1.30;;;;;;;7.49;100.00;98869.19;4971248;28;20255;-79
2021/05/05 06:19:38;;;;;;;4.03;1.27;;;;;;;7.40;100.00;98870.16;5004347;28;20182;-78
2021/05/05 06:22:09;;;;;;;3.43;1.27;;;;;;;7.27;100.00;98880.91;5015102;28;20229;-77
2021/05/05 06:24:34;;;;;;;5.20;1.57;;;;;;;7.30;100.00;98871.09;4994221;28;20188;-79
2021/05/05 06:27:05;;;;;;;4.47;1.53;;;;;;;7.30;100.00;98887.31;4993004;28;20733;-77
2021/05/05 06:29:30;;;;;;;6.00;1.37;;;;;;;7.38;100.00;98889.34;5010423;28;20858;-77
2021/05/05 06:31:56;;;;;;;4.73;1.50;;;;;;;7.47;100.00;98875.97;5009195;28;20259;-77
2021/05/05 06:34:24;;;;;;;5.03;1.63;;;;;;;7.71;100.00;98872.84;4996010;28;20189;-76
2021/05/05 06:36:52;;;;;;;7.23;1.67;;;;;;;7.96;100.00;98875.06;4993525;28;20243;-77
2021/05/05 06:39:20;;;;;;;4.83;1.23;;;;;;;7.98;100.00;98877.47;5010462;28;20185;-76
2021/05/05 06:41:45;;;;;;;6.00;1.33;;;;;;;8.01;100.00;98887.72;5011040;28;20599;-78
2021/05/05 06:44:13;;;;;;;5.70;1.40;;;;;;;7.74;100.00;98882.25;5010630;28;20185;-77
2021/05/05 06:46:49;;;;;;;4.77;1.50;;;;;;;7.70;100.00;98886.63;5009753;28;20236;-76
2021/05/05 06:49:14;;;;;;;4.90;1.73;;;;;;;7.82;99.81;98878.84;4994806;28;20212;-76
2021/05/05 06:51:42;;;;;;;8.07;2.03;;;;;;;7.94;98.41;98888.09;5025179;28;20224;-76
2021/05/05 06:54:08;;;;;;;5.60;1.60;;;;;;;8.03;98.29;98880.91;5009737;28;20192;-79
2021/05/05 06:56:34;;;;;;;6.90;1.77;;;;;;;7.92;98.31;98894.91;4959441;28;20230;-77
2021/05/05 06:58:59;;;;;;;4.23;1.33;;;;;;;7.85;96.83;98889.88;4971765;28;20188;-76
2021/05/05 07:01:25;;;;;;;5.83;1.50;;;;;;;7.98;97.53;98886.38;4970877;28;20222;-79
2021/05/05 07:03:53;;;;;;;7.37;1.67;;;;;;;8.01;96.74;98895.81;4970331;28;20201;-77
2021/05/05 07:06:19;;;;;;;5.30;1.90;;;;;;;7.96;96.89;98885.09;4970681;28;20269;-77
2021/05/05 07:08:50;;;;;;;4.17;1.50;;;;;;;8.03;95.57;98890.91;4988997;28;20698;-78
2021/05/05 07:11:20;;;;;;;4.77;1.23;;;;;;;7.94;93.98;98903.50;4989892;28;20717;-78
2021/05/05 07:13:48;;;;;;;3.50;1.20;;;;;;;7.86;95.55;98890.69;4988867;28;20205;-78
2021/05/05 07:16:13;;;;;;;5.30;1.43;;;;;;;8.05;95.16;98895.69;4991654;28;20233;-78
2021/05/05 07:18:39;;;;;;;6.77;1.47;;;;;;;8.05;94.23;98897.63;5010411;28;20186;-77
2021/05/05 07:21:05;;;;;;;6.77;1.50;;;;;;;7.93;94.44;98901.88;4991891;28;20272;-77
2021/05/05 07:23:30;;;;;;;5.67;1.80;;;;;;;8.12;93.62;98909.66;4973415;28;20190;-77
2021/05/05 07:25:56;;;;;;;4.93;1.50;;;;;;;8.22;92.85;98901.38;4990165;28;20221;-76
2021/05/05 07:28:26;;;;;;;8.17;1.60;;;;;;;8.31;91.60;98918.50;4990432;28;20255;-79
2021/05/05 07:30:54;;;;;;;6.17;1.30;;;;;;;8.79;88.87;98895.31;5006347;28;20236;-77
2021/05/05 07:33:22;;;;;;;5.20;1.43;;;;;;;8.69;87.92;98906.38;4973339;28;20181;-78
2021/05/05 07:35:54;;;;;;;6.73;1.43;;;;;;;8.41;87.96;98910.19;4970486;28;20252;-77
2021/05/05 07:46:40;;;;;;;4.60;1.33;;;;;;;8.36;88.20;98923.81;5003647;28;20229;-77
2021/05/05 07:49:11;;;;;;;4.13;1.37;;;;;;;8.42;84.48;98911.00;4977611;28;20213;-77
2021/05/05 07:51:39;;;;;;;5.43;1.40;;;;;;;8.44;81.61;98923.91;5004358;28;20715;-79
2021/05/05 07:54:08;;;;;;;5.53;1.50;;;;;;;8.54;82.56;98925.63;4973604;28;20198;-77
2021/05/05 07:56:37;;;;;;;5.33;1.57;;;;;;;8.50;82.29;98924.63;4989490;28;20288;-76
2021/05/05 07:59:07;;;;;;;8.20;1.67;;;;;;;8.40;82.04;98916.69;4991586;28;20186;-77
2021/05/05 08:01:37;;;;;;;5.60;1.30;;;;;;;8.44;81.69;98925.81;5009731;28;20225;-77
2021/05/05 08:04:03;;;;;;;5.40;1.70;;;;;;;8.47;81.62;98934.13;4984608;28;20182;-77
2021/05/05 08:06:29;;;;;;;5.13;1.40;;;;;;;8.42;83.21;98928.00;4993224;28;20237;-78
2021/05/05 08:08:59;;;;;;;4.20;1.57;;;;;;;8.43;82.82;98931.53;5010459;28;20190;-78
2021/05/05 08:11:25;;;;;;;5.67;1.47;;;;;;;8.53;83.29;98940.25;5010589;28;20737;-78
2021/05/05 08:13:51;;;;;;;3.70;1.20;;;;;;;8.50;81.34;98936.25;4986338;28;20191;-77
2021/05/05 08:16:20;;;;;;;4.10;1.40;;;;;;;8.56;81.72;98950.47;4975722;28;20719;-76
2021/05/05 08:18:51;;;;;;;6.63;1.50;;;;;;;8.76;81.21;98933.84;4976150;28;20187;-78
2021/05/05 08:21:16;;;;;;;6.97;1.83;;;;;;;8.96;80.39;98929.56;4990725;28;20779;-78
2021/05/05 08:23:42;;;;;;;5.93;1.67;;;;;;;9.20;78.91;98934.75;4974272;28;20190;-77
2021/05/05 08:26:10;;;;;;;4.30;1.57;;;;;;;8.96;79.37;98935.00;4973020;28;20284;-77
2021/05/05 08:28:39;;;;;;;6.73;1.70;;;;;;;9.29;80.62;98933.72;4973755;28;20182;-79
2021/05/05 08:31:05;;;;;;;6.37;1.50;;;;;;;9.62;78.44;98923.13;4972658;28;20244;-76
2021/05/05 08:33:31;;;;;;;5.07;1.40;;;;;;;9.89;78.33;98938.47;4989059;28;20559;-77
2021/05/05 08:35:56;;;;;;;6.70;1.60;;;;;;;10.20;75.80;98940.94;4989468;28;20226;-77
2021/05/05 08:38:27;;;;;;;6.57;1.80;;;;;;;10.02;75.55;98922.16;4973617;28;20226;-77
2021/05/05 08:40:52;;;;;;;4.90;1.60;;;;;;;9.82;75.80;98932.69;4989386;28;20276;-77
2021/05/05 08:43:23;;;;;;;5.70;1.27;;;;;;;10.01;75.26;98926.75;4973963;28;20192;-78
2021/05/05 08:45:49;;;;;;;5.73;1.53;;;;;;;9.52;76.83;98944.25;4972657;28;20313;-77
2021/05/05 08:48:18;;;;;;;7.57;1.83;;;;;;;9.53;77.56;98947.78;4974605;28;20191;-77
2021/05/05 08:50:43;;;;;;;3.63;1.20;;;;;;;9.25;76.75;98963.31;4988960;28;20230;-76
2021/05/05 08:53:14;;;;;;;5.83;1.83;;;;;;;9.22;76.36;98955.00;4972867;28;20662;-76
2021/05/05 08:55:41;;;;;;;6.93;1.60;;;;;;;9.25;75.79;98967.94;4972841;28;20709;-77
2021/05/05 08:58:07;;;;;;;7.87;1.80;;;;;;;9.30;76.58;98952.38;4989522;28;20237;-77
2021/05/05 09:00:37;;;;;;;10.17;2.10;;;;;;;9.39;75.85;98955.94;4972603;28;20236;-78
2021/05/05 09:03:06;;;;;;;7.07;1.90;;;;;;;9.56;76.62;98952.56;4975242;28;20216;-77
2021/05/05 09:05:54;;;;;;;7.00;2.40;;;;;;;9.71;73.45;98953.03;4992101;28;20261;-77
2021/05/05 09:08:22;;;;;;;7.03;1.60;;;;;;;9.54;72.90;98968.34;4976813;28;20185;-77
2021/05/05 09:11:01;;;;;;;5.83;1.67;;;;;;;10.01;71.76;98942.25;5006999;28;20312;-77
2021/05/05 09:13:48;;;;;;;6.37;1.60;;;;;;;9.90;70.20;98964.47;4991510;28;20667;-78
2021/05/05 09:16:15;;;;;;;6.97;1.50;;;;;;;9.93;68.88;98966.63;4991346;28;20273;-79
2021/05/05 09:18:50;;;;;;;6.80;2.00;;;;;;;10.33;68.87;98950.06;4991945;28;20193;-77
2021/05/05 09:21:25;;;;;;;6.20;1.60;;;;;;;10.30;66.94;98924.38;4992385;28;20229;-77
2021/05/05 09:24:16;;;;;;;4.63;1.80;;;;;;;10.20;68.18;98959.94;4975739;28;20197;-77
2021/05/05 09:26:41;;;;;;;5.80;1.37;;;;;;;10.23;68.76;98962.00;4992298;28;20287;-76
2021/05/05 09:29:07;;;;;;;6.97;1.83;;;;;;;10.33;68.57;98971.78;4992455;28;20185;-76
2021/05/05 09:31:39;;;;;;;4.23;1.47;;;;;;;9.92;67.87;98960.38;4972479;28;20233;-77
2021/05/05 09:34:07;;;;;;;5.03;1.63;;;;;;;9.94;67.42;98966.28;4992247;28;20260;-79
2021/05/05 09:36:55;;;;;;;3.97;1.50;;;;;;;10.21;67.23;98956.09;4975056;28;20225;-79
2021/05/05 09:39:29;;;;;;;6.00;1.70;;;;;;;10.09;67.95;98965.91;4991904;28;20640;-77
2021/05/05 09:41:54;;;;;;;7.37;1.80;;;;;;;10.11;68.47;98974.56;5006452;28;20819;-77
2021/05/05 09:44:20;;;;;;;6.73;1.63;;;;;;;10.50;67.06;98973.47;4976185;28;20177;-77
2021/05/05 09:46:54;;;;;;;4.77;1.60;;;;;;;10.57;63.64;98962.19;5007019;28;20257;-77
2021/05/05 09:49:27;;;;;;;5.57;1.20;;;;;;;10.51;63.80;98961.53;4991932;28;20960;-77
2021/05/05 09:51:58;;;;;;;7.53;2.00;;;;;;;10.67;63.63;98975.47;4991715;28;20233;-78
2021/05/05 09:54:28;;;;;;;4.47;1.20;;;;;;;10.74;64.12;98952.97;5009569;28;20385;-78
2021/05/05 09:56:57;;;;;;;4.50;1.30;;;;;;;10.85;61.86;98958.91;4976012;28;20288;-78
2021/05/05 09:59:24;;;;;;;3.97;1.37;;;;;;;10.60;62.59;98962.31;5008235;28;20174;-78
2021/05/05 10:01:59;;;;;;;5.00;1.40;;;;;;;11.10;63.77;98960.88;5007250;28;20244;-79
2021/05/05 10:04:26;;;;;;;6.13;1.40;;;;;;;11.14;61.12;98955.31;4975469;28;20584;-76
2021/05/05 10:07:00;;;;;;;6.63;2.00;;;;;;;11.13;59.32;98951.00;4976071;28;20251;-78
2021/05/05 10:09:28;;;;;;;4.87;1.50;;;;;;;10.92;61.36;98961.97;4991599;28;20220;-77
2021/05/05 10:11:54;;;;;;;5.53;1.67;;;;;;;10.54;61.51;98958.16;4973752;28;21129;-76
2021/05/05 10:14:23;;;;;;;5.87;2.10;;;;;;;10.80;62.83;98980.78;5007885;28;20212;-77
2021/05/05 10:16:50;;;;;;;4.40;1.50;;;;;;;10.54;61.85;98977.16;5008874;28;20866;-78
2021/05/05 10:19:26;;;;;;;7.73;1.40;;;;;;;10.86;61.17;98974.09;4975703;28;20276;-78
2021/05/05 10:21:52;;;;;;;4.37;1.03;;;;;;;11.19;58.66;98960.59;4990683;28;20221;-78
2021/05/05 10:24:23;;;;;;;5.57;1.13;;;;;;;11.13;56.61;98979.28;5001454;28;20204;-77
2021/05/05 10:26:54;;;;;;;1.93;0.90;;;;;;;11.75;55.39;98968.66;4986039;28;20297;-77
2021/05/05 10:29:19;;;;;;;2.93;1.23;;;;;;;11.55;54.59;98955.69;5005562;28;20217;-79
2021/05/05 10:31:51;;;;;;;3.87;1.30;;;;;;;11.57;56.14;98961.63;4986486;28;20791;-78
2021/05/05 10:34:23;;;;;;;4.70;1.30;;;;;;;11.64;56.91;98956.50;4988098;28;20197;-78
2021/05/05 10:36:55;;;;;;;4.87;1.30;;;;;;;11.41;59.09;98975.97;4983749;28;20245;-78
2021/05/05 10:39:21;;;;;;;3.40;1.40;;;;;;;11.17;61.00;98968.28;5012459;28;20221;-77
2021/05/05 10:41:59;;;;;;;4.03;0.83;;;;;;;10.90;61.77;98983.22;4995152;28;20225;-77
2021/05/05 10:44:40;;;;;;;3.47;1.30;;;;;;;11.08;62.76;98998.44;4998302;28;20289;-79
2021/05/05 10:47:31;;;;;;;4.40;1.23;;;;;;;11.13;63.50;98987.44;5007189;28;20209;-78
2021/05/05 10:52:36;;;;;;;4.80;1.27;;;;;;;11.14;62.62;99001.50;5024379;28;20227;-80
2021/05/05 10:55:07;;;;;;;4.57;1.60;;;;;;;11.19;63.88;99011.44;5009102;28;20617;-77
2021/05/05 10:57:36;;;;;;;6.93;1.40;;;;;;;10.74;65.85;99007.28;4981850;28;20294;-79
2021/05/05 11:00:10;;;;;;;3.53;1.50;;;;;;;10.76;66.85;99005.03;4999254;28;20246;-78
2021/05/05 11:02:52;;;;;;;3.80;1.00;;;;;;;10.44;67.27;99012.72;4999860;28;20224;-77
2021/05/05 11:05:25;;;;;;;5.97;1.20;;;;;;;10.13;72.61;99026.59;5000451;28;20192;-76
2021/05/05 11:07:59;;;;;;;3.10;1.20;;;;;;;9.39;79.64;99049.97;5015349;28;20207;-76
2021/05/05 11:10:30;;;;;;;2.73;1.20;;;;;;;8.95;89.35;99082.28;5015297;28;20276;-76
2021/05/05 11:12:56;;;;;;;3.90;1.17;;;;;;;8.39;99.75;99090.91;5013787;28;20238;-78
2021/05/05 11:15:44;;;;;;;2.90;1.00;;;;;;;7.95;100.00;99094.28;4996974;28;20228;-77
2021/05/05 11:18:39;;;;;;;2.63;1.03;;;;;;;7.63;100.00;99102.34;5030853;28;20212;-77
2021/05/05 11:21:26;;;;;;;1.50;0.77;;;;;;;7.65;100.00;99115.56;4995879;28;20227;-76
2021/05/05 11:23:54;;;;;;;1.97;0.93;;;;;;;7.95;100.00;99121.31;4993080;28;20196;-76
2021/05/05 11:26:23;;;;;;;2.77;0.90;;;;;;;7.76;100.00;99123.22;4993601;28;20233;-76
2021/05/05 11:29:01;;;;;;;1.60;0.80;;;;;;;7.94;100.00;99108.91;4994028;28;20208;-78
2021/05/05 11:31:51;;;;;;;2.40;0.70;;;;;;;8.18;100.00;99116.66;5011076;28;20706;-79
2021/05/05 11:36:46;;;;;;;1.70;0.73;;;;;;;8.89;100.00;99102.44;4997286;28;20287;-76
2021/05/05 11:39:24;;;;;;;1.30;0.80;;;;;;;9.09;100.00;99118.31;4981620;28;20188;-79
2021/05/05 11:42:03;;;;;;;3.63;1.13;;;;;;;8.95;100.00;99117.47;4983578;28;20690;-78
2021/05/05 11:44:55;;;;;;;3.20;0.97;;;;;;;8.62;100.00;99127.84;4999809;28;20216;-78
2021/05/05 11:47:28;;;;;;;2.53;0.80;;;;;;;8.78;100.00;99123.78;4983979;28;20221;-78
2021/05/05 11:50:03;;;;;;;3.63;1.00;;;;;;;8.70;100.00;99119.03;5016536;28;20250;-78
2021/05/05 11:52:32;;;;;;;3.23;0.80;;;;;;;9.18;100.00;99130.06;5014734;28;20235;-78
2021/05/05 11:55:24;;;;;;;1.83;0.83;;;;;;;9.18;100.00;99130.06;4983295;28;20189;-78
2021/05/05 11:57:53;;;;;;;3.77;0.93;;;;;;;9.11;100.00;99129.63;4958310;28;20253;-78